Time;durP1;ratioP1;P1;durP2;ratioP2;P2;SDS_P1;SDS_P2;PMS_P1;PMS_P2;Temp;Humidity;BMP_temperature;BMP_pressure;BME280_temperature;BME280_humidity;BME280_pressure;Samples;Min_cycle;Max_cycle;Signal;HPM_P1;HPM_P2
2022/08/16 00:00:28;;;;;;;15.50;13.88;;;20.30;99.90;;;;;;5039159;28;20492;-60
2022/08/16 00:02:55;;;;;;;18.48;15.20;;;20.30;99.90;;;;;;5039215;28;20489;-60
2022/08/16 00:05:23;;;;;;;17.63;14.25;;;20.30;99.90;;;;;;5037220;28;20029;-61
2022/08/16 00:07:50;;;;;;;18.38;14.25;;;20.20;99.90;;;;;;5041608;28;20044;-61
2022/08/16 00:10:16;;;;;;;18.40;14.77;;;20.20;99.90;;;;;;5036378;28;20040;-61
2022/08/16 00:12:43;;;;;;;15.70;13.68;;;20.20;99.90;;;;;;5040034;28;20036;-61
2022/08/16 00:15:16;;;;;;;17.70;13.93;;;20.30;99.90;;;;;;5046320;28;20036;-60
2022/08/16 00:17:42;;;;;;;18.15;14.98;;;20.30;99.90;;;;;;5035281;28;20370;-61
2022/08/16 00:20:09;;;;;;;20.48;16.52;;;20.30;99.90;;;;;;5032126;28;20388;-61
2022/08/16 00:22:37;;;;;;;18.25;14.82;;;20.30;99.90;;;;;;5038182;28;20048;-60
2022/08/16 00:25:06;;;;;;;19.42;14.68;;;20.20;99.90;;;;;;5040124;28;20053;-60
2022/08/16 00:27:31;;;;;;;20.85;16.25;;;20.20;99.90;;;;;;5038701;28;20408;-60
2022/08/16 00:29:57;;;;;;;16.23;14.43;;;20.20;99.90;;;;;;5043063;28;20086;-61
2022/08/16 00:32:23;;;;;;;17.60;14.38;;;20.20;99.90;;;;;;5032866;28;20369;-61
2022/08/16 00:34:49;;;;;;;18.70;15.10;;;20.20;99.90;;;;;;5035468;28;20040;-61
2022/08/16 00:37:15;;;;;;;18.52;14.60;;;20.10;99.90;;;;;;5046118;28;20056;-61
2022/08/16 00:39:41;;;;;;;18.00;13.93;;;20.10;99.90;;;;;;5046288;28;20420;-60
2022/08/16 00:42:06;;;;;;;19.85;15.90;;;20.20;99.90;;;;;;5043798;28;20041;-60
2022/08/16 00:44:34;;;;;;;21.33;16.80;;;20.10;99.90;;;;;;5039719;28;20116;-61
2022/08/16 00:47:05;;;;;;;20.13;16.55;;;20.20;99.90;;;;;;5044452;28;20028;-60
2022/08/16 00:49:32;;;;;;;20.73;15.93;;;20.20;99.90;;;;;;5030802;28;20041;-60
2022/08/16 00:51:58;;;;;;;21.88;17.10;;;20.20;99.90;;;;;;5040148;28;20072;-60
2022/08/16 00:54:26;;;;;;;22.23;17.08;;;20.20;99.90;;;;;;5047637;28;20048;-61
2022/08/16 00:56:53;;;;;;;19.85;16.67;;;20.20;99.90;;;;;;5027242;28;20082;-61
2022/08/16 00:59:21;;;;;;;22.52;16.85;;;20.10;99.90;;;;;;5040055;28;20063;-60
2022/08/16 01:01:47;;;;;;;19.42;16.10;;;20.10;99.90;;;;;;5031427;28;20187;-60
2022/08/16 01:04:19;;;;;;;22.52;16.38;;;20.10;99.90;;;;;;5031146;28;20478;-61
2022/08/16 01:06:44;;;;;;;20.77;16.10;;;20.10;99.90;;;;;;5029714;28;20119;-60
2022/08/16 01:09:10;;;;;;;24.60;16.00;;;20.10;99.90;;;;;;5034115;28;20033;-60
2022/08/16 01:11:37;;;;;;;22.15;16.05;;;20.10;99.90;;;;;;5033237;28;20033;-60
2022/08/16 01:14:12;;;;;;;21.90;17.42;;;20.10;99.90;;;;;;5038198;28;20079;-61
2022/08/16 01:16:40;;;;;;;20.20;16.50;;;20.10;99.90;;;;;;5039130;28;20111;-60
2022/08/16 01:19:30;;;;;;;19.42;17.35;;;20.00;99.90;;;;;;5028674;28;20037;-61
2022/08/16 01:22:13;;;;;;;19.10;16.73;;;20.00;99.90;;;;;;5017683;28;20742;-61
2022/08/16 01:24:49;;;;;;;27.55;18.70;;;20.00;99.90;;;;;;5038578;28;20033;-60
2022/08/16 01:27:23;;;;;;;22.70;17.35;;;20.00;99.90;;;;;;5032858;28;20076;-61
2022/08/16 01:30:09;;;;;;;19.90;17.77;;;20.00;99.90;;;;;;5036631;28;20131;-60
2022/08/16 01:32:37;;;;;;;20.13;17.58;;;20.00;99.90;;;;;;5031361;28;20052;-60
2022/08/16 01:35:12;;;;;;;21.65;18.02;;;20.00;99.90;;;;;;5033427;28;20041;-60
2022/08/16 01:37:44;;;;;;;22.02;17.60;;;20.00;99.90;;;;;;5038030;28;20032;-60
2022/08/16 01:40:12;;;;;;;22.80;18.13;;;20.00;99.90;;;;;;5039436;28;20527;-60
2022/08/16 01:42:37;;;;;;;21.92;18.23;;;19.90;99.90;;;;;;5042983;28;20459;-60
2022/08/16 01:45:04;;;;;;;25.45;18.60;;;19.90;99.90;;;;;;5042325;28;20131;-61
2022/08/16 01:47:31;;;;;;;19.65;16.63;;;19.90;99.90;;;;;;5035573;28;20473;-60
2022/08/16 01:49:56;;;;;;;22.92;18.33;;;19.90;99.90;;;;;;5038389;28;20048;-61
2022/08/16 01:52:22;;;;;;;24.38;18.95;;;19.90;99.90;;;;;;5043343;28;20037;-60
2022/08/16 01:54:48;;;;;;;21.35;18.42;;;19.90;99.90;;;;;;5039112;28;22182;-60
2022/08/16 01:57:13;;;;;;;23.40;18.38;;;19.90;99.90;;;;;;5016220;28;20131;-60
2022/08/16 01:59:40;;;;;;;22.15;18.33;;;19.90;99.90;;;;;;5036075;28;20041;-61
2022/08/16 02:02:05;;;;;;;19.95;16.73;;;19.90;99.90;;;;;;5039882;28;20481;-60
2022/08/16 02:04:33;;;;;;;20.17;17.30;;;19.90;99.90;;;;;;5040091;28;20120;-61
2022/08/16 02:06:58;;;;;;;20.45;16.58;;;19.90;99.90;;;;;;5037861;28;20171;-60
2022/08/16 02:09:25;;;;;;;19.10;15.40;;;19.90;99.90;;;;;;5032706;28;20047;-60
2022/08/16 02:11:56;;;;;;;24.48;18.10;;;19.90;99.90;;;;;;5043576;28;20040;-61
2022/08/16 02:14:26;;;;;;;22.23;16.23;;;19.90;99.90;;;;;;5041252;28;20430;-60
2022/08/16 02:16:52;;;;;;;24.90;18.02;;;19.80;99.90;;;;;;5041542;28;20437;-60
2022/08/16 02:19:18;;;;;;;22.30;17.55;;;19.80;99.90;;;;;;5038059;28;20148;-61
2022/08/16 02:21:50;;;;;;;21.65;16.15;;;19.80;99.90;;;;;;5039296;28;20049;-60
2022/08/16 02:24:17;;;;;;;19.25;16.95;;;19.80;99.90;;;;;;5045333;28;20170;-60
2022/08/16 02:26:42;;;;;;;19.42;16.40;;;19.70;99.90;;;;;;5032531;28;20033;-60
2022/08/16 02:29:08;;;;;;;19.67;16.65;;;19.60;99.90;;;;;;5024804;28;20445;-60
2022/08/16 02:31:34;;;;;;;19.27;16.95;;;19.50;99.90;;;;;;5043864;28;20037;-61
2022/08/16 02:34:00;;;;;;;19.80;16.50;;;19.60;99.90;;;;;;5047884;28;20385;-60
2022/08/16 02:36:26;;;;;;;17.08;15.23;;;19.50;99.90;;;;;;5039211;28;20068;-60
2022/08/16 02:38:52;;;;;;;20.30;16.40;;;19.50;99.90;;;;;;5051359;28;20709;-61
2022/08/16 02:41:18;;;;;;;20.40;16.67;;;19.50;99.90;;;;;;5032490;28;20038;-60
2022/08/16 02:43:44;;;;;;;23.15;15.32;;;19.40;99.90;;;;;;5047545;28;20405;-61
2022/08/16 02:46:09;;;;;;;18.48;15.77;;;19.40;99.90;;;;;;5046632;28;20056;-60
2022/08/16 02:48:37;;;;;;;20.05;16.85;;;19.40;99.90;;;;;;5040969;28;20033;-60
2022/08/16 02:51:04;;;;;;;19.38;15.43;;;19.30;99.90;;;;;;5048201;28;20078;-60
2022/08/16 02:53:30;;;;;;;18.90;16.67;;;19.40;99.90;;;;;;5046602;28;20081;-60
2022/08/16 02:55:56;;;;;;;21.02;16.17;;;19.30;99.90;;;;;;5043472;28;20041;-61
2022/08/16 02:58:22;;;;;;;23.25;17.00;;;19.30;99.90;;;;;;5034339;28;20029;-60
2022/08/16 03:00:48;;;;;;;26.20;18.25;;;19.30;99.90;;;;;;5045259;28;20055;-61
2022/08/16 03:03:14;;;;;;;26.27;19.00;;;19.30;99.90;;;;;;5043135;28;21713;-60
2022/08/16 03:05:40;;;;;;;21.00;17.45;;;19.30;99.90;;;;;;5047182;28;20037;-60
2022/08/16 03:08:06;;;;;;;23.45;18.50;;;19.30;99.90;;;;;;5044366;28;20048;-60
2022/08/16 03:10:32;;;;;;;21.73;17.48;;;19.20;99.90;;;;;;5037203;28;20033;-60
2022/08/16 03:12:58;;;;;;;23.02;17.58;;;19.20;99.90;;;;;;5041696;28;20044;-60
2022/08/16 03:15:24;;;;;;;23.23;17.73;;;19.10;99.90;;;;;;5043179;28;20049;-60
2022/08/16 03:17:49;;;;;;;23.17;17.70;;;19.10;99.90;;;;;;5033834;28;20048;-60
2022/08/16 03:20:16;;;;;;;20.52;18.08;;;19.00;99.90;;;;;;5033662;28;20037;-60
2022/08/16 03:22:42;;;;;;;23.35;18.17;;;19.00;99.90;;;;;;5036257;28;20465;-60
2022/08/16 03:25:10;;;;;;;20.38;17.85;;;18.90;99.90;;;;;;5031513;28;20047;-60
2022/08/16 03:27:37;;;;;;;27.45;19.02;;;18.80;99.90;;;;;;5036403;28;20592;-60
2022/08/16 03:30:21;;;;;;;20.52;17.40;;;18.80;99.90;;;;;;5036938;28;20598;-60
2022/08/16 03:32:48;;;;;;;22.50;17.73;;;18.70;99.90;;;;;;5036979;28;20052;-60
2022/08/16 03:35:16;;;;;;;21.63;17.33;;;18.60;99.90;;;;;;5045037;28;20048;-60
2022/08/16 03:37:44;;;;;;;21.17;17.35;;;18.60;99.90;;;;;;5042509;28;20127;-60
2022/08/16 03:40:14;;;;;;;19.67;15.38;;;18.50;99.90;;;;;;5046278;28;20051;-60
2022/08/16 03:42:40;;;;;;;;;;;18.50;99.90;;;;;;5030263;28;20052;-61
2022/08/16 03:45:06;;;;;;;22.90;16.10;;;18.40;99.90;;;;;;5034201;28;19917;-60
2022/08/16 03:47:33;;;;;;;22.25;15.38;;;18.30;99.90;;;;;;5042849;28;20033;-60
2022/08/16 03:49:59;;;;;;;24.42;16.75;;;18.30;99.90;;;;;;5044395;28;20594;-60
2022/08/16 03:52:25;;;;;;;21.77;16.25;;;18.30;99.90;;;;;;5036478;28;20187;-60
2022/08/16 03:54:52;;;;;;;22.80;18.10;;;18.20;99.90;;;;;;5045582;28;20120;-60
2022/08/16 03:57:17;;;;;;;21.08;15.23;;;18.20;99.90;;;;;;5041166;28;20060;-60
2022/08/16 03:59:43;;;;;;;27.00;17.38;;;18.20;99.90;;;;;;5043671;28;20041;-60
2022/08/16 04:02:11;;;;;;;22.27;17.13;;;18.20;99.90;;;;;;5039015;28;20044;-60
2022/08/16 04:04:36;;;;;;;22.00;17.33;;;18.10;99.90;;;;;;5036554;28;20559;-60
2022/08/16 04:07:06;;;;;;;25.83;19.02;;;18.00;99.90;;;;;;5036475;28;20145;-60
2022/08/16 04:09:33;;;;;;;24.00;18.77;;;18.00;99.90;;;;;;5037656;28;20040;-60
2022/08/16 04:11:59;;;;;;;26.20;20.40;;;17.90;99.90;;;;;;5048284;28;20048;-60
2022/08/16 04:14:25;;;;;;;26.80;19.08;;;17.90;99.90;;;;;;5046083;28;20562;-60
2022/08/16 04:16:51;;;;;;;27.42;19.02;;;17.80;99.90;;;;;;5035741;28;20087;-60
2022/08/16 04:19:16;;;;;;;29.63;20.63;;;17.80;99.90;;;;;;5044114;28;20037;-60
2022/08/16 04:21:42;;;;;;;25.65;19.42;;;17.80;99.90;;;;;;5040671;28;20037;-60
2022/08/16 04:24:07;;;;;;;27.30;19.45;;;17.80;99.90;;;;;;5044086;28;20363;-60
2022/08/16 04:26:33;;;;;;;25.27;18.73;;;17.80;99.90;;;;;;5044387;28;20120;-60
2022/08/16 04:29:00;;;;;;;31.90;19.58;;;17.80;99.90;;;;;;5039706;28;20041;-61
2022/08/16 04:31:26;;;;;;;26.55;18.88;;;17.80;99.90;;;;;;5046653;28;20044;-60
2022/08/16 04:33:52;;;;;;;26.40;19.02;;;17.80;99.90;;;;;;5043217;28;20386;-60
2022/08/16 04:36:21;;;;;;;26.38;19.90;;;17.70;99.90;;;;;;5034192;28;20700;-60
2022/08/16 04:38:46;;;;;;;26.23;18.50;;;17.70;99.90;;;;;;5043656;28;20041;-60
2022/08/16 04:41:12;;;;;;;30.58;19.73;;;17.60;99.90;;;;;;5040368;28;20045;-60
2022/08/16 04:43:37;;;;;;;27.42;17.90;;;17.60;99.90;;;;;;5041327;28;20045;-60
2022/08/16 04:46:04;;;;;;;29.83;19.98;;;17.60;99.90;;;;;;5046536;28;20049;-60
2022/08/16 04:48:30;;;;;;;26.13;18.92;;;17.60;99.90;;;;;;5036850;28;20037;-60
2022/08/16 04:50:56;;;;;;;28.27;19.80;;;17.60;99.90;;;;;;5029411;28;20037;-60
2022/08/16 04:53:21;;;;;;;25.58;18.80;;;17.60;99.90;;;;;;5029927;28;20385;-60
2022/08/16 04:55:47;;;;;;;24.33;18.20;;;17.60;99.90;;;;;;5035819;28;20040;-60
2022/08/16 04:58:13;;;;;;;27.88;18.23;;;17.60;99.90;;;;;;5034628;28;20081;-60
2022/08/16 05:00:38;;;;;;;25.27;19.25;;;17.60;99.90;;;;;;5035316;28;20087;-60
2022/08/16 05:03:09;;;;;;;30.55;20.25;;;17.70;99.90;;;;;;5046844;28;20056;-60
2022/08/16 05:05:38;;;;;;;28.52;19.75;;;17.70;99.90;;;;;;5029661;28;20069;-61
2022/08/16 05:08:06;;;;;;;33.70;20.92;;;17.70;99.90;;;;;;5030503;28;20033;-61
2022/08/16 05:10:32;;;;;;;27.88;19.55;;;17.70;99.90;;;;;;5035704;28;20488;-60
2022/08/16 05:13:00;;;;;;;37.00;20.00;;;17.70;99.90;;;;;;5031368;28;20059;-60
2022/08/16 05:15:26;;;;;;;26.05;19.77;;;17.80;99.90;;;;;;5030468;28;20716;-61
2022/08/16 05:17:53;;;;;;;35.10;21.48;;;17.70;99.90;;;;;;5042602;28;20416;-61
2022/08/16 05:20:20;;;;;;;33.65;22.50;;;17.80;99.90;;;;;;5029825;28;20037;-60
2022/08/16 05:22:46;;;;;;;34.70;22.25;;;17.80;99.90;;;;;;5035211;28;20060;-60
2022/08/16 05:25:12;;;;;;;32.13;21.10;;;17.90;99.90;;;;;;5034110;28;20055;-60
2022/08/16 05:27:39;;;;;;;31.70;22.02;;;18.00;99.90;;;;;;5032764;28;20037;-60
2022/08/16 05:30:07;;;;;;;34.00;21.80;;;18.00;99.90;;;;;;5030852;28;20056;-60
2022/08/16 05:32:34;;;;;;;31.90;22.80;;;18.10;99.90;;;;;;5038533;28;20037;-60
2022/08/16 05:34:59;;;;;;;34.35;22.60;;;18.20;99.90;;;;;;5039744;28;20500;-61
2022/08/16 05:37:25;;;;;;;36.63;24.33;;;18.30;99.90;;;;;;5038228;28;20041;-60
2022/08/16 05:39:51;;;;;;;34.35;23.85;;;18.40;99.90;;;;;;5042365;28;20044;-60
2022/08/16 05:42:17;;;;;;;36.80;24.40;;;18.50;99.90;;;;;;5046209;28;20083;-60
2022/08/16 05:44:42;;;;;;;36.00;24.35;;;18.70;99.90;;;;;;5029412;28;20030;-61
2022/08/16 05:47:08;;;;;;;32.03;22.75;;;18.80;99.90;;;;;;5030873;28;20042;-61
2022/08/16 05:49:34;;;;;;;37.00;24.65;;;18.90;99.90;;;;;;5038172;28;20037;-60
2022/08/16 05:52:00;;;;;;;33.28;22.90;;;19.00;99.90;;;;;;5035619;28;20237;-60
2022/08/16 05:54:27;;;;;;;34.05;23.55;;;19.10;99.90;;;;;;5040874;28;20124;-61
2022/08/16 05:56:55;;;;;;;33.47;23.88;;;19.20;99.90;;;;;;5033871;28;20048;-61
2022/08/16 05:59:20;;;;;;;31.65;21.90;;;19.30;99.90;;;;;;5041684;28;20052;-61
2022/08/16 06:01:49;;;;;;;32.30;22.08;;;19.50;99.90;;;;;;5041485;28;20049;-61
2022/08/16 06:04:15;;;;;;;30.70;21.80;;;19.60;99.90;;;;;;5043070;28;20133;-60
2022/08/16 06:06:43;;;;;;;30.38;20.98;;;19.80;99.90;;;;;;5048455;28;20072;-61
2022/08/16 06:09:10;;;;;;;33.90;22.20;;;19.90;99.90;;;;;;5035954;28;20048;-61
2022/08/16 06:11:36;;;;;;;30.95;19.85;;;20.00;99.90;;;;;;5053868;28;20380;-61
2022/08/16 06:14:02;;;;;;;25.00;19.13;;;20.20;99.90;;;;;;5041266;28;20036;-61
2022/08/16 06:16:28;;;;;;;26.00;19.63;;;20.40;99.90;;;;;;5048898;28;20102;-61
2022/08/16 06:18:53;;;;;;;24.67;17.60;;;20.60;99.90;;;;;;5051627;28;20045;-61
2022/08/16 06:21:19;;;;;;;24.75;19.50;;;20.70;99.90;;;;;;5052010;28;20045;-60
2022/08/16 06:23:45;;;;;;;23.00;18.23;;;21.00;99.90;;;;;;5045986;28;20077;-60
2022/08/16 06:26:10;;;;;;;26.17;18.35;;;21.20;99.90;;;;;;5041160;28;20056;-61
2022/08/16 06:28:36;;;;;;;21.92;16.35;;;21.40;99.90;;;;;;5037324;28;20056;-61
2022/08/16 06:31:02;;;;;;;20.00;15.52;;;21.80;99.90;;;;;;5042141;28;20065;-60
2022/08/16 06:33:28;;;;;;;17.52;15.07;;;22.10;99.90;;;;;;5038915;28;20045;-61
2022/08/16 06:35:55;;;;;;;19.55;16.02;;;22.40;99.90;;;;;;5039828;28;20834;-61
2022/08/16 06:38:21;;;;;;;19.27;16.08;;;22.80;99.00;;;;;;5035095;28;20102;-61
2022/08/16 06:40:47;;;;;;;20.38;16.00;;;22.90;99.30;;;;;;5045016;28;20115;-62
2022/08/16 06:43:13;;;;;;;19.42;13.80;;;23.10;98.30;;;;;;5045158;28;20037;-61
2022/08/16 07:00:23;;;;;;;14.73;11.80;;;24.30;91.10;;;;;;5046800;28;20036;-61
2022/08/16 07:02:49;;;;;;;14.75;10.98;;;24.20;93.30;;;;;;5046100;28;20049;-61
2022/08/16 07:05:16;;;;;;;14.50;11.38;;;24.30;92.50;;;;;;5047766;28;20037;-62
2022/08/16 07:07:47;;;;;;;12.88;10.40;;;24.20;91.20;;;;;;5049566;28;20033;-61
2022/08/16 07:10:13;;;;;;;13.65;10.18;;;24.30;90.90;;;;;;5051151;28;20033;-61
2022/08/16 07:12:39;;;;;;;13.98;11.07;;;24.50;91.10;;;;;;5039819;28;20170;-61
2022/08/16 07:15:05;;;;;;;12.10;9.77;;;24.60;90.50;;;;;;5035541;28;20096;-61
2022/08/16 07:17:32;;;;;;;12.35;9.95;;;24.80;86.40;;;;;;5037416;28;20420;-61
2022/08/16 07:19:58;;;;;;;12.70;9.65;;;25.00;88.80;;;;;;5049152;28;20114;-62
2022/08/16 07:22:24;;;;;;;12.32;10.15;;;25.20;88.30;;;;;;5047234;28;20041;-61
2022/08/16 07:24:50;;;;;;;21.95;11.57;;;25.30;87.00;;;;;;5053424;28;20408;-62
2022/08/16 07:27:16;;;;;;;13.25;10.00;;;25.40;85.70;;;;;;5051143;28;20037;-61
2022/08/16 07:29:41;;;;;;;13.45;10.68;;;25.50;84.70;;;;;;5042646;28;20595;-62
2022/08/16 07:32:07;;;;;;;12.23;10.23;;;25.60;84.30;;;;;;5045379;28;20040;-62
2022/08/16 07:34:33;;;;;;;13.80;9.32;;;25.80;82.80;;;;;;5049166;28;20125;-62
2022/08/16 07:37:02;;;;;;;14.20;10.77;;;25.80;82.90;;;;;;5037674;28;20083;-61
2022/08/16 07:39:28;;;;;;;13.60;10.80;;;26.00;81.50;;;;;;5031186;28;20072;-61
2022/08/16 07:41:54;;;;;;;15.30;11.57;;;26.00;81.10;;;;;;5039006;28;20544;-62
2022/08/16 07:44:20;;;;;;;16.10;11.55;;;25.80;80.30;;;;;;5047087;28;20124;-61
2022/08/16 07:46:45;;;;;;;14.13;12.07;;;25.90;80.10;;;;;;5045076;28;20166;-62
2022/08/16 07:49:11;;;;;;;15.13;12.18;;;26.00;79.60;;;;;;5040944;28;20487;-62
2022/08/16 07:51:37;;;;;;;15.13;12.15;;;26.10;77.20;;;;;;5048813;28;20110;-62
2022/08/16 07:54:06;;;;;;;16.52;13.18;;;26.10;79.20;;;;;;5053349;28;20029;-62
2022/08/16 07:56:32;;;;;;;14.70;11.52;;;26.20;78.80;;;;;;5040439;28;20052;-61
2022/08/16 07:58:57;;;;;;;14.20;10.68;;;26.30;77.70;;;;;;5032355;28;20038;-62
2022/08/16 08:01:24;;;;;;;15.77;11.05;;;26.40;77.10;;;;;;5037461;28;20110;-62
2022/08/16 08:03:51;;;;;;;18.80;10.82;;;26.50;78.00;;;;;;5050262;28;20739;-62
2022/08/16 08:06:19;;;;;;;15.40;9.98;;;26.80;76.50;;;;;;5050370;28;20846;-62
2022/08/16 08:08:44;;;;;;;19.00;12.10;;;26.90;76.10;;;;;;5030898;28;20041;-61
2022/08/16 08:11:10;;;;;;;17.88;10.55;;;27.10;75.10;;;;;;5033057;28;20132;-62
2022/08/16 08:13:36;;;;;;;13.07;10.55;;;27.20;74.30;;;;;;5035684;28;20048;-62
2022/08/16 08:16:02;;;;;;;14.63;11.05;;;27.30;73.00;;;;;;5049967;28;20069;-62
2022/08/16 08:18:28;;;;;;;13.00;10.52;;;27.40;71.40;;;;;;5032439;28;20071;-62
2022/08/16 08:20:55;;;;;;;13.75;9.75;;;27.60;71.60;;;;;;5034462;28;20059;-62
2022/08/16 08:23:21;;;;;;;12.45;9.30;;;27.90;70.60;;;;;;5048347;28;20065;-63
2022/08/16 08:25:47;;;;;;;11.10;9.50;;;27.60;70.40;;;;;;5031922;28;20073;-62
2022/08/16 08:28:13;;;;;;;11.23;10.13;;;27.90;69.50;;;;;;5041462;28;20083;-62
2022/08/16 08:30:39;;;;;;;14.43;9.80;;;27.90;68.50;;;;;;5038201;28;20037;-62
2022/08/16 08:33:05;;;;;;;10.77;9.25;;;28.00;67.60;;;;;;5032518;28;20076;-62
2022/08/16 08:35:33;;;;;;;10.95;9.68;;;27.90;67.60;;;;;;5048862;28;20095;-63
2022/08/16 08:37:59;;;;;;;13.30;8.95;;;28.10;67.10;;;;;;5041558;28;20700;-63
2022/08/16 08:40:26;;;;;;;13.00;9.45;;;28.30;66.70;;;;;;5042363;28;20033;-62
2022/08/16 08:42:56;;;;;;;10.27;8.27;;;28.40;64.60;;;;;;5038550;28;20041;-62
2022/08/16 08:45:21;;;;;;;12.80;8.82;;;28.60;64.80;;;;;;5050486;28;20041;-61
2022/08/16 08:47:47;;;;;;;12.30;9.75;;;28.60;64.40;;;;;;5049050;28;20040;-63
2022/08/16 08:50:15;;;;;;;9.60;8.50;;;28.80;63.30;;;;;;5030865;28;20655;-62
2022/08/16 08:52:42;;;;;;;10.57;9.40;;;29.20;62.80;;;;;;5032354;28;20053;-62
2022/08/16 08:55:10;;;;;;;11.77;8.57;;;29.60;61.20;;;;;;5050925;28;20037;-62
2022/08/16 08:57:36;;;;;;;10.23;7.85;;;29.70;60.40;;;;;;5049420;28;20392;-62
2022/08/16 09:00:04;;;;;;;9.00;7.28;;;30.10;59.20;;;;;;5051325;28;20036;-62
2022/08/16 09:02:30;;;;;;;8.00;7.18;;;30.50;58.30;;;;;;5039596;28;20084;-63
2022/08/16 09:04:56;;;;;;;9.57;8.57;;;30.60;58.10;;;;;;5031731;28;20080;-62
2022/08/16 09:07:21;;;;;;;10.82;8.82;;;30.90;57.40;;;;;;5044480;28;20043;-62
2022/08/16 09:09:48;;;;;;;11.38;9.05;;;31.00;57.10;;;;;;5043765;28;20041;-62
2022/08/16 09:12:16;;;;;;;9.68;8.68;;;31.30;56.10;;;;;;5041777;28;20157;-62
2022/08/16 09:14:42;;;;;;;10.23;7.97;;;31.10;55.30;;;;;;5051673;28;20037;-63
2022/08/16 09:17:08;;;;;;;10.13;7.03;;;31.60;54.90;;;;;;5047816;28;20569;-63
2022/08/16 09:19:36;;;;;;;10.27;7.97;;;31.60;53.10;;;;;;5030401;28;20053;-63
2022/08/16 09:22:03;;;;;;;9.90;8.25;;;31.40;52.90;;;;;;5030171;28;20088;-62
2022/08/16 09:24:29;;;;;;;10.30;8.23;;;31.50;53.80;;;;;;5036750;28;20052;-62
2022/08/16 09:26:55;;;;;;;10.15;8.70;;;31.40;53.60;;;;;;5047425;28;20465;-63
2022/08/16 09:29:21;;;;;;;9.68;8.48;;;31.00;53.20;;;;;;5041531;28;20049;-63
2022/08/16 09:31:47;;;;;;;9.45;7.43;;;30.50;55.30;;;;;;5045191;28;20101;-63
2022/08/16 09:34:13;;;;;;;10.10;8.90;;;30.50;55.70;;;;;;5031291;28;20048;-62
2022/08/16 09:36:39;;;;;;;10.40;7.53;;;30.30;55.90;;;;;;5048321;28;20037;-63
2022/08/16 09:39:04;;;;;;;11.65;9.85;;;30.10;56.70;;;;;;5055520;28;20040;-62
2022/08/16 09:41:31;;;;;;;16.65;10.35;;;30.30;55.30;;;;;;5044067;28;20055;-62
2022/08/16 09:43:57;;;;;;;9.80;8.80;;;30.60;54.30;;;;;;5037991;28;20045;-62
2022/08/16 09:46:24;;;;;;;12.32;10.85;;;31.00;53.70;;;;;;5044198;28;20037;-63
2022/08/16 09:48:51;;;;;;;12.73;9.57;;;31.10;52.90;;;;;;5052917;28;20639;-62
2022/08/16 09:51:18;;;;;;;9.55;8.15;;;30.70;52.70;;;;;;5050202;28;20029;-63
2022/08/16 09:53:44;;;;;;;10.43;8.35;;;30.30;52.70;;;;;;5039810;28;20029;-63
2022/08/16 09:56:26;;;;;;;9.60;8.70;;;29.90;54.10;;;;;;5046018;28;20872;-62
2022/08/16 09:58:52;;;;;;;10.55;7.88;;;30.00;54.20;;;;;;5053326;28;20061;-62
2022/08/16 10:01:18;;;;;;;10.63;8.70;;;29.50;55.10;;;;;;5054343;28;20106;-62
2022/08/16 10:03:43;;;;;;;12.90;10.30;;;29.70;55.50;;;;;;5037949;28;20084;-62
2022/08/16 10:06:09;;;;;;;11.90;9.35;;;29.80;55.00;;;;;;5036573;28;20532;-63
2022/08/16 10:08:35;;;;;;;13.20;9.77;;;30.60;54.30;;;;;;5035843;28;20045;-62
2022/08/16 10:13:44;;;;;;;11.75;7.68;;;31.90;51.00;;;;;;5042404;28;20045;-63
2022/08/16 10:16:12;;;;;;;9.27;7.22;;;32.50;50.00;;;;;;5045971;28;20037;-63
2022/08/16 10:18:39;;;;;;;7.97;7.10;;;33.00;49.20;;;;;;5044185;28;20049;-63
2022/08/16 10:21:05;;;;;;;10.35;7.82;;;32.60;48.80;;;;;;5049474;28;20082;-62
2022/08/16 10:23:31;;;;;;;10.00;7.22;;;31.90;49.80;;;;;;5043350;28;20480;-62
2022/08/16 10:25:57;;;;;;;9.77;7.20;;;31.50;50.80;;;;;;5046043;28;20048;-63
2022/08/16 10:28:24;;;;;;;15.25;7.38;;;30.90;51.40;;;;;;5042745;28;20049;-63
2022/08/16 10:30:50;;;;;;;5.75;5.20;;;30.60;51.00;;;;;;5048006;28;20028;-62
2022/08/16 10:33:16;;;;;;;6.90;5.40;;;30.40;51.60;;;;;;5037020;28;20086;-62
2022/08/16 10:35:43;;;;;;;7.32;5.00;;;30.30;50.80;;;;;;5040327;28;20056;-63
2022/08/16 10:38:09;;;;;;;5.85;4.38;;;29.90;50.70;;;;;;5043911;28;20420;-62
2022/08/16 10:40:35;;;;;;;8.15;5.47;;;29.60;50.40;;;;;;5054078;28;20044;-62
2022/08/16 10:43:00;;;;;;;9.32;6.10;;;29.80;50.30;;;;;;5046417;28;20045;-62
2022/08/16 10:45:28;;;;;;;7.10;5.75;;;29.50;50.50;;;;;;5050050;28;20045;-62
2022/08/16 10:47:55;;;;;;;7.20;5.13;;;29.40;50.40;;;;;;5045424;28;20427;-63
2022/08/16 10:50:20;;;;;;;7.00;5.75;;;29.40;50.50;;;;;;5049494;28;20439;-62
2022/08/16 10:52:46;;;;;;;4.97;4.47;;;29.40;50.40;;;;;;5051728;28;20033;-62
2022/08/16 10:55:12;;;;;;;7.07;5.72;;;29.30;50.50;;;;;;5045254;28;20045;-63
2022/08/16 10:57:39;;;;;;;8.43;5.60;;;29.40;50.70;;;;;;5039427;28;20049;-63
2022/08/16 11:00:11;;;;;;;5.78;5.30;;;29.40;50.80;;;;;;5037730;28;20043;-62
2022/08/16 11:02:37;;;;;;;7.75;5.00;;;29.40;50.40;;;;;;5036653;28;20049;-62
2022/08/16 11:05:04;;;;;;;8.38;5.95;;;29.40;50.40;;;;;;5033683;28;20068;-62
2022/08/16 11:07:30;;;;;;;8.23;6.40;;;29.40;50.40;;;;;;5037615;28;20033;-62
2022/08/16 11:09:57;;;;;;;7.28;5.60;;;29.50;50.60;;;;;;5053015;28;20039;-63
2022/08/16 11:12:24;;;;;;;6.57;5.97;;;29.50;51.10;;;;;;5053774;28;20033;-62
2022/08/16 11:14:50;;;;;;;5.68;5.07;;;29.60;51.00;;;;;;5052299;28;20045;-62
2022/08/16 11:17:15;;;;;;;7.45;5.30;;;29.60;50.30;;;;;;5041226;28;20473;-63
2022/08/16 11:19:41;;;;;;;7.70;5.43;;;29.50;50.00;;;;;;5051152;28;20484;-62
2022/08/16 11:22:06;;;;;;;7.93;5.35;;;29.50;49.60;;;;;;5035718;28;20452;-62
2022/08/16 11:24:32;;;;;;;7.47;4.95;;;29.70;50.00;;;;;;5036888;28;20025;-62
2022/08/16 11:26:59;;;;;;;6.18;4.78;;;29.80;49.60;;;;;;5038224;28;20030;-62
2022/08/16 11:29:24;;;;;;;6.20;5.05;;;29.60;49.00;;;;;;5035283;28;20511;-62
2022/08/16 11:31:50;;;;;;;7.20;5.10;;;29.70;49.00;;;;;;5049757;28;20045;-63
2022/08/16 11:34:16;;;;;;;6.00;4.80;;;29.80;49.30;;;;;;5049800;28;20044;-62
2022/08/16 11:36:42;;;;;;;5.88;4.68;;;29.90;48.60;;;;;;5035971;28;20037;-62
2022/08/16 11:39:08;;;;;;;5.28;4.28;;;29.90;48.90;;;;;;5047365;28;20397;-65
2022/08/16 11:41:37;;;;;;;4.97;4.47;;;29.90;48.40;;;;;;5045607;28;20045;-64
2022/08/16 11:44:04;;;;;;;6.85;4.40;;;30.10;48.30;;;;;;5039286;28;20048;-62
2022/08/16 11:46:30;;;;;;;7.63;4.80;;;30.10;48.30;;;;;;5051527;28;20462;-62
2022/08/16 11:48:56;;;;;;;7.20;4.60;;;30.10;48.50;;;;;;5033477;28;20065;-63
2022/08/16 11:51:21;;;;;;;7.32;4.50;;;30.20;48.50;;;;;;5037390;28;20037;-62
2022/08/16 11:53:47;;;;;;;5.05;4.55;;;30.30;48.30;;;;;;5050960;28;20068;-63
2022/08/16 11:56:12;;;;;;;4.93;4.30;;;30.20;47.90;;;;;;5045742;28;20045;-62
2022/08/16 11:58:38;;;;;;;4.97;4.10;;;30.30;47.70;;;;;;5047381;28;20343;-63
2022/08/16 12:01:04;;;;;;;5.20;4.50;;;30.40;47.20;;;;;;5035246;28;20053;-63
2022/08/16 12:03:30;;;;;;;5.50;4.18;;;30.30;45.90;;;;;;5029917;28;20556;-63
2022/08/16 12:05:58;;;;;;;7.85;4.40;;;30.30;46.30;;;;;;5041276;28;20029;-63
2022/08/16 12:08:24;;;;;;;6.13;4.00;;;30.50;46.00;;;;;;5043699;28;20401;-62
2022/08/16 12:10:50;;;;;;;5.45;4.20;;;30.70;45.70;;;;;;5051433;28;20540;-62
2022/08/16 12:13:16;;;;;;;5.50;3.70;;;30.80;45.70;;;;;;5045670;28;20481;-63
2022/08/16 12:15:42;;;;;;;5.00;3.70;;;31.00;45.30;;;;;;5048815;28;20052;-62
2022/08/16 12:18:09;;;;;;;6.60;3.88;;;31.10;44.70;;;;;;5051779;28;20044;-62
2022/08/16 12:20:37;;;;;;;4.60;4.05;;;31.00;44.50;;;;;;5038738;28;20543;-62
2022/08/16 12:23:03;;;;;;;4.38;3.47;;;31.10;44.50;;;;;;5038231;28;20080;-62
2022/08/16 12:25:31;;;;;;;4.53;3.42;;;31.30;44.80;;;;;;5046382;28;20032;-63
2022/08/16 12:27:57;;;;;;;5.28;3.88;;;31.30;43.80;;;;;;5050568;28;20080;-62
2022/08/16 12:30:27;;;;;;;4.25;3.45;;;31.40;43.70;;;;;;5049281;28;20044;-62
2022/08/16 12:32:53;;;;;;;;;;;31.30;43.20;;;;;;5049463;28;20413;-63
2022/08/16 12:35:21;;;;;;;4.45;3.58;;;31.40;42.10;;;;;;5034516;28;19917;-62
2022/08/16 12:37:48;;;;;;;4.65;3.95;;;31.60;43.40;;;;;;5044422;28;20045;-62
2022/08/16 12:40:23;;;;;;;6.60;3.67;;;31.70;43.00;;;;;;5047890;28;20191;-62
2022/08/16 12:42:50;;;;;;;4.63;3.60;;;31.90;43.00;;;;;;5032410;28;20045;-63
2022/08/16 12:45:18;;;;;;;5.72;3.70;;;32.20;42.50;;;;;;5048604;28;20028;-62
2022/08/16 12:50:28;;;;;;;5.03;3.55;;;32.90;41.40;;;;;;5049687;28;20048;-63